KSFQ

Suffolk Executive Airport

Suffolk, Virginia, USA
METAR KSFQ 220735Z AUTO 21004KT 10SM SCT045 21/20 A3010 RMK AO2 T02060202
Observed Flight Rules
Sep-22 @ 07:35 UTC (18 minutes ago) Visual Flight Rules
Wind Visibility Clouds
210° at 4 knots 10 miles
Temperatures Readings
Current 21°C / 70°F
Dewpoint 20°C / 68°F
Humidity 94%
Altimeter 30.1" Hg
Pressure 1019 hPa
Elevation 22
METAR KSFQ 220735Z AUTO 21004KT 10SM SCT045 21/20 A3010 RMK AO2 T02060202
Observed Flight Rules
Sep-22 @ 07:35 UTC
(18 minutes ago)
VFR
Wind Visibility
210° at 4 knots 10 miles
Clouds
Temperature Dewpoint
21°C / 70°F 20°C / 68°F
Humidity Altimeter Pressure
94% 30.1" Hg 1019 hPa